Главная страница
METAR-TAF:

METAR-TAF

Аэропорты :

Ростов-на-Дону, Россия

широта: 47-16N, долгота: 039-49E, высота над уровнем моря: 77 м

Текущие метеонаблюдения

Эта сводка был подготовлена 22 минут назад, в 07:00 UTC
Ветер 4 Узел от восточно-северо-восточный, изменяющийся между северо-западный и юго-восточный
Температура 17°C
Влажность 55%
Давление 1018 hPa
Видимость 10 км и более
Нет облачности ниже 1500 м, и нет кучево-дождевой облачности

METAR: URRR 290700Z 07002MPS 320V130 CAVOK 17/08 Q1018 R04/CLRD70 NOSIG RMK QFE757/1010

Время: 10:22 (07:22 UTC)

Прогноз

Эта сводка был подготовлена 2 часа и 25 минут назад, в 04:57 UTC
Прогноз действительный с 29-го 06 UTC до 30-го 06 UTC
Ветер 6 Узел от восточно-северо-восточный с порывами до 16 Узел
Видимость 10 км и более
Отдельные облака на высоте 2000 фута
временами
С 29-го 06 UTC до 30-го 06 UTC
Ветер 10 Узел от восточный с порывами до 19 Узел

TAF: URRR 290457Z 2906/3006 07003G08MPS 9999 SCT020 TEMPO 2906/3006 09005G10MPS

Метеонаблюдения и прогнозы для более 4000 аэропортов (сводки METAR и TAF).

Имеющиеся станции представлены на карте желтыми и красными точками.

Чтобы увидеть название станции, наведите на нее мышь.

Затем щелкните, чтобы увидеть метеонаблюдения и метеопрогнозы.

Управление картой: чтобы увеличить масштаб, щелкните зеленые кнопки с черным крестиком; чтобы уменьшить масштаб, щелкните зеленую кнопку с тире; для просмотра соседних карт щелкайте зеленые стрелки.


METAR-TAF: